createdAt,value
2017-08-11T00:02:03.455Z,85.20
2017-08-11T00:04:31.709Z,85.90
2017-08-11T00:06:59.233Z,85.80
2017-08-11T00:09:26.696Z,85.20
2017-08-11T00:11:54.166Z,84.80
2017-08-11T00:14:22.276Z,84.80
2017-08-11T00:16:50.500Z,85.10
2017-08-11T00:19:17.970Z,85.00
2017-08-11T00:21:45.458Z,84.80
2017-08-11T00:24:12.926Z,84.10
2017-08-11T00:26:41.152Z,84.90
2017-08-11T00:29:08.640Z,84.80
2017-08-11T00:31:36.108Z,84.70
2017-08-11T00:34:03.566Z,84.80
2017-08-11T00:36:31.817Z,85.00
2017-08-11T00:38:59.289Z,84.20
2017-08-11T00:41:26.757Z,84.10
2017-08-11T00:43:54.988Z,84.50
2017-08-11T00:46:22.469Z,84.40
2017-08-11T00:48:49.931Z,84.50
2017-08-11T00:51:17.405Z,84.80
2017-08-11T00:53:45.652Z,84.20
2017-08-11T00:56:13.842Z,84.20
2017-08-11T00:58:41.960Z,84.50
2017-08-11T01:01:09.450Z,84.50
2017-08-11T01:03:36.917Z,83.40
2017-08-11T01:06:04.545Z,83.60
2017-08-11T01:08:32.026Z,83.50
2017-08-11T01:10:59.509Z,83.90
2017-08-11T01:13:27.737Z,84.70
2017-08-11T01:15:56.057Z,84.40
2017-08-11T01:18:24.399Z,83.50
2017-08-11T01:20:52.025Z,83.90
2017-08-11T01:23:19.498Z,83.70
2017-08-11T01:25:46.997Z,84.20
2017-08-11T01:28:14.473Z,84.30
2017-08-11T01:30:42.804Z,84.50
2017-08-11T01:33:10.309Z,84.50
2017-08-11T01:35:38.569Z,83.80
2017-08-11T01:38:06.041Z,83.70
2017-08-11T01:40:34.342Z,83.90
2017-08-11T01:43:01.807Z,83.90
2017-08-11T01:45:29.267Z,84.40
2017-08-11T01:47:56.741Z,83.90
2017-08-11T01:50:24.229Z,84.10
2017-08-11T01:52:51.886Z,84.50
2017-08-11T01:55:19.355Z,84.90
2017-08-11T01:57:47.597Z,84.40
2017-08-11T02:00:15.094Z,85.00
2017-08-11T02:02:43.449Z,85.60
2017-08-11T02:05:10.953Z,85.50
2017-08-11T02:07:38.418Z,85.10
2017-08-11T02:10:06.484Z,85.80
2017-08-11T02:12:33.970Z,86.20
2017-08-11T02:15:01.438Z,85.90
2017-08-11T02:17:28.993Z,85.80
2017-08-11T02:19:56.482Z,86.00
2017-08-11T02:22:24.713Z,86.10
2017-08-11T02:24:52.185Z,86.00
2017-08-11T02:27:19.649Z,86.50
2017-08-11T02:29:47.129Z,86.40
2017-08-11T02:32:15.361Z,86.80
2017-08-11T02:34:42.842Z,86.70
2017-08-11T02:37:10.306Z,87.50
2017-08-11T02:39:38.570Z,87.40
2017-08-11T02:42:06.033Z,86.80
2017-08-11T02:44:33.508Z,86.40
2017-08-11T02:47:01.776Z,86.90
2017-08-11T02:49:29.237Z,86.80
2017-08-11T02:51:57.456Z,87.00
2017-08-11T02:54:24.944Z,87.00
2017-08-11T02:56:52.435Z,86.90
2017-08-11T02:59:20.665Z,87.20
2017-08-11T03:01:48.153Z,87.20
2017-08-11T03:04:16.106Z,87.30
2017-08-11T03:06:43.572Z,87.30
2017-08-11T03:09:11.822Z,88.30
2017-08-11T03:11:39.289Z,87.60
2017-08-11T03:14:06.764Z,87.40
2017-08-11T03:16:35.101Z,87.50
2017-08-11T03:19:02.592Z,87.40
2017-08-11T03:21:30.055Z,87.60
2017-08-11T03:23:57.532Z,87.10
2017-08-11T03:26:25.014Z,87.00
2017-08-11T03:28:52.492Z,87.30
2017-08-11T03:31:19.969Z,87.60
2017-08-11T03:33:47.439Z,87.70
2017-08-11T03:36:14.913Z,87.40
2017-08-11T03:38:42.410Z,87.80
2017-08-11T03:41:09.906Z,88.20
2017-08-11T03:43:37.388Z,88.30
2017-08-11T03:46:04.851Z,87.80
2017-08-11T03:48:32.337Z,88.00
2017-08-11T03:50:59.816Z,87.90
2017-08-11T03:53:27.390Z,88.00
2017-08-11T03:55:55.634Z,88.10
2017-08-11T03:58:23.105Z,87.70
2017-08-11T04:00:50.703Z,87.60
2017-08-11T04:03:18.190Z,87.70
2017-08-11T04:05:45.682Z,87.80
2017-08-11T04:08:13.154Z,87.40
2017-08-11T04:10:41.419Z,88.10
2017-08-11T04:13:08.965Z,87.70
2017-08-11T04:15:36.433Z,88.10
2017-08-11T04:18:03.960Z,88.00
2017-08-11T04:20:31.418Z,88.10
2017-08-11T04:22:58.929Z,88.00
2017-08-11T04:25:27.258Z,87.70
2017-08-11T04:27:54.744Z,87.70
2017-08-11T04:30:22.245Z,87.30
2017-08-11T04:32:49.829Z,87.10
2017-08-11T04:35:17.325Z,86.80
2017-08-11T04:37:45.580Z,87.40
2017-08-11T04:40:13.045Z,86.60
2017-08-11T04:42:40.629Z,86.80
2017-08-11T04:45:08.873Z,86.80
2017-08-11T04:47:36.345Z,86.80
2017-08-11T04:50:03.826Z,86.80
2017-08-11T04:52:32.133Z,86.90
2017-08-11T04:54:59.617Z,86.50
2017-08-11T04:57:27.086Z,86.90
2017-08-11T04:59:54.572Z,86.80
2017-08-11T05:02:22.036Z,86.80
2017-08-11T05:04:49.521Z,86.90
2017-08-11T05:07:16.977Z,87.10
2017-08-11T05:09:44.562Z,87.10
2017-08-11T05:12:12.042Z,87.10
2017-08-11T05:14:39.508Z,86.50
2017-08-11T05:17:07.753Z,86.20
2017-08-11T05:19:35.384Z,86.20
2017-08-11T05:22:02.865Z,86.50
2017-08-11T05:24:30.338Z,86.30
2017-08-11T05:26:57.801Z,86.50
2017-08-11T05:29:26.043Z,86.80
2017-08-11T05:31:53.520Z,86.60
2017-08-11T05:34:20.998Z,87.30
2017-08-11T05:36:49.231Z,87.10
2017-08-11T05:39:16.721Z,87.10
2017-08-11T05:41:45.004Z,86.30
2017-08-11T05:44:12.464Z,86.80
2017-08-11T05:46:40.710Z,87.00
2017-08-11T05:49:08.661Z,87.00
2017-08-11T05:51:36.143Z,86.60
2017-08-11T05:54:03.624Z,86.60
2017-08-11T05:56:31.862Z,86.30
2017-08-11T05:58:59.342Z,86.30
2017-08-11T06:01:27.587Z,87.20
2017-08-11T06:03:55.061Z,86.60
2017-08-11T06:06:22.556Z,86.50
2017-08-11T06:08:50.042Z,86.50
2017-08-11T06:11:17.497Z,86.20
2017-08-11T06:13:44.985Z,86.60
2017-08-11T06:16:12.537Z,86.30
2017-08-11T06:18:40.025Z,85.30
2017-08-11T06:21:08.265Z,85.10
2017-08-11T06:23:35.754Z,85.00
2017-08-11T06:26:03.229Z,85.10
2017-08-11T06:28:31.569Z,86.00
2017-08-11T06:30:59.051Z,86.00
2017-08-11T06:33:27.281Z,86.00
2017-08-11T06:35:54.782Z,86.00
2017-08-11T06:38:23.205Z,86.30
2017-08-11T06:40:50.691Z,86.20
2017-08-11T06:43:18.220Z,85.90
2017-08-11T06:45:45.697Z,85.90
2017-08-11T06:48:13.184Z,85.60
2017-08-11T06:50:40.733Z,86.60
2017-08-11T06:53:08.262Z,85.90
2017-08-11T06:55:35.877Z,84.90
2017-08-11T06:58:04.130Z,85.00
2017-08-11T07:00:31.626Z,85.00
2017-08-11T07:03:00.161Z,84.80
2017-08-11T07:05:27.858Z,84.20
2017-08-11T07:07:55.355Z,85.10
2017-08-11T07:10:22.865Z,84.50
2017-08-11T07:12:50.357Z,84.30
2017-08-11T07:15:17.937Z,83.70
2017-08-11T07:17:45.410Z,84.30
2017-08-11T07:20:12.886Z,84.00
2017-08-11T07:22:41.332Z,83.90
2017-08-11T07:25:08.894Z,83.90
2017-08-11T07:27:36.378Z,84.90
2017-08-11T07:30:04.601Z,85.00
2017-08-11T07:32:33.037Z,85.00
2017-08-11T07:35:00.599Z,84.70
2017-08-11T07:37:28.834Z,84.20
2017-08-11T07:39:56.408Z,84.10
2017-08-11T07:42:23.889Z,84.30
2017-08-11T07:44:52.130Z,84.00
2017-08-11T07:47:19.605Z,84.00
2017-08-11T07:49:47.846Z,84.10
2017-08-11T07:52:15.333Z,83.30
2017-08-11T07:54:42.852Z,83.60
2017-08-11T07:57:10.353Z,84.10
2017-08-11T07:59:37.830Z,83.40
2017-08-11T08:02:05.294Z,83.30
2017-08-11T08:04:32.835Z,83.90
2017-08-11T08:07:01.093Z,83.70
2017-08-11T08:09:29.049Z,83.50
2017-08-11T08:11:56.517Z,83.60
2017-08-11T08:14:23.995Z,83.50
2017-08-11T08:16:52.285Z,82.90
2017-08-11T08:19:20.706Z,82.80
2017-08-11T08:21:48.186Z,83.80
2017-08-11T08:24:15.670Z,83.60
2017-08-11T08:26:43.925Z,82.60
2017-08-11T08:29:11.482Z,82.60
2017-08-11T08:31:38.941Z,82.00
2017-08-11T08:34:07.214Z,80.70
2017-08-11T08:36:34.778Z,80.90
2017-08-11T08:39:02.241Z,82.60
2017-08-11T08:41:30.474Z,83.30
2017-08-11T08:43:58.013Z,83.30
2017-08-11T08:46:25.484Z,82.00
2017-08-11T08:48:52.946Z,81.80
2017-08-11T08:51:20.459Z,81.50
2017-08-11T08:53:48.689Z,81.90
2017-08-11T08:56:16.185Z,81.80
2017-08-11T08:58:44.631Z,82.10
2017-08-11T09:01:12.105Z,82.00
2017-08-11T09:03:39.608Z,81.40
2017-08-11T09:06:07.097Z,81.00
2017-08-11T09:08:34.786Z,81.80
2017-08-11T09:11:03.213Z,81.10
2017-08-11T09:13:30.694Z,81.10
2017-08-11T09:15:58.839Z,79.40
2017-08-11T09:18:26.318Z,79.80
2017-08-11T09:20:53.860Z,79.60
2017-08-11T09:23:21.477Z,80.10
2017-08-11T09:26:02.468Z,80.20
2017-08-11T09:28:42.295Z,79.50
2017-08-11T09:31:22.505Z,77.10
2017-08-11T09:34:11.530Z,77.70
2017-08-11T09:36:39.932Z,76.70
2017-08-11T09:39:07.416Z,78.20
2017-08-11T09:41:34.907Z,79.90
2017-08-11T09:44:03.229Z,78.80
2017-08-11T09:46:30.721Z,78.70
2017-08-11T09:48:59.204Z,78.30
2017-08-11T09:51:26.869Z,76.50
2017-08-11T09:53:54.413Z,77.10
2017-08-11T09:56:21.873Z,75.40
2017-08-11T09:58:49.353Z,77.10
2017-08-11T10:01:17.665Z,75.90
2017-08-11T10:03:45.145Z,75.80
2017-08-11T10:06:12.630Z,75.60
2017-08-11T10:08:40.102Z,75.90
2017-08-11T10:11:08.353Z,77.00
2017-08-11T10:13:35.822Z,76.20
2017-08-11T10:16:03.296Z,75.90
2017-08-11T10:18:31.539Z,75.10
2017-08-11T10:20:59.009Z,75.10
2017-08-11T10:23:27.283Z,74.20
2017-08-11T10:25:54.845Z,74.70
2017-08-11T10:28:23.083Z,75.60
2017-08-11T10:30:50.567Z,75.50
2017-08-11T10:33:18.774Z,75.00
2017-08-11T10:35:47.007Z,73.20
2017-08-11T10:38:14.682Z,73.20
2017-08-11T10:40:42.148Z,73.50
2017-08-11T10:43:10.402Z,73.90
2017-08-11T10:45:37.889Z,73.60
2017-08-11T10:48:06.114Z,74.30
2017-08-11T10:50:33.599Z,74.30
2017-08-11T10:53:01.090Z,74.80
2017-08-11T10:55:28.567Z,74.90
2017-08-11T10:57:56.031Z,74.90
2017-08-11T11:00:23.598Z,75.80
2017-08-11T11:02:51.183Z,75.60
2017-08-11T11:05:18.649Z,76.60
2017-08-11T11:07:46.120Z,76.30
2017-08-11T11:10:14.345Z,76.50
2017-08-11T11:12:41.826Z,76.50
2017-08-11T11:15:09.353Z,76.40
2017-08-11T11:17:36.840Z,76.40
2017-08-11T11:20:04.318Z,75.30
2017-08-11T11:22:32.588Z,75.50
2017-08-11T11:25:00.049Z,75.50
2017-08-11T11:27:28.273Z,75.50
2017-08-11T11:29:55.745Z,75.50
2017-08-11T11:32:23.210Z,76.00
2017-08-11T11:34:50.695Z,75.00
2017-08-11T11:37:18.932Z,75.50
2017-08-11T11:39:46.394Z,74.90
2017-08-11T11:42:13.865Z,73.50
2017-08-11T11:44:41.322Z,73.90
2017-08-11T11:47:08.822Z,75.40
2017-08-11T11:49:36.284Z,75.30
2017-08-11T11:52:03.745Z,75.20
2017-08-11T11:54:31.216Z,73.40
2017-08-11T11:56:58.713Z,74.40
